Terminal Aerodrome Forecast
Issued by NWS

Home | Current Version | Previous Version | Text Only | Print | Product List | Glossary On
Versions: 1 2 3 4 5 6 7 8 9 10 11 12 13 14
000
FTUS45 KRIW 300500
TAFCPR
TAF
KCPR 300540Z 3006/3106 VRB05KT P6SM FEW120
     FM301100 22010KT P6SM FEW120
     FM301500 22022G32KT P6SM FEW080 SCT120
     FM301900 22025G35KT P6SM VCTS SCT080CB BKN120
     FM310400 36009KT P6SM VCSH BKN080=

USA.gov is the U.S. government's official web portal to all federal, state and local government web resources and services.